createdAt,value
2018-03-31T00:02:45.104Z,79.97
2018-03-31T00:06:08.173Z,80.26
2018-03-31T00:09:31.249Z,80.57
2018-03-31T00:12:54.289Z,80.98
2018-03-31T00:16:16.554Z,81.48
2018-03-31T00:19:38.815Z,81.31
2018-03-31T00:23:01.088Z,81.62
2018-03-31T00:26:23.458Z,81.08
2018-03-31T00:29:46.488Z,81.48
2018-03-31T00:33:08.775Z,80.63
2018-03-31T00:36:31.120Z,81.29
2018-03-31T00:39:54.167Z,80.03
2018-03-31T00:43:16.436Z,79.68
2018-03-31T00:46:38.699Z,80.06
2018-03-31T00:50:01.031Z,80.86
2018-03-31T00:53:23.298Z,80.59
2018-03-31T00:56:45.565Z,80.93
2018-03-31T01:00:07.834Z,79.89
2018-03-31T01:03:30.234Z,80.61
2018-03-31T01:06:52.504Z,80.75
2018-03-31T01:10:14.774Z,80.21
2018-03-31T01:13:37.039Z,79.91
2018-03-31T01:16:59.307Z,80.85
2018-03-31T01:20:21.585Z,80.10
2018-03-31T01:23:43.866Z,80.07
2018-03-31T01:27:06.907Z,81.92
2018-03-31T01:30:29.187Z,81.32
2018-03-31T01:33:51.521Z,80.17
2018-03-31T01:37:13.786Z,79.37
2018-03-31T01:40:36.069Z,79.99
2018-03-31T01:43:59.117Z,80.08
2018-03-31T01:47:21.471Z,80.32
2018-03-31T01:50:44.539Z,81.45
2018-03-31T01:54:07.604Z,80.87
2018-03-31T01:57:30.645Z,80.59
2018-03-31T02:00:52.938Z,79.65
2018-03-31T02:04:15.985Z,80.28
2018-03-31T02:07:38.457Z,78.73
2018-03-31T02:11:00.867Z,78.59
2018-03-31T02:14:23.279Z,79.46
2018-03-31T02:17:45.568Z,80.38
2018-03-31T02:21:07.896Z,78.66
2018-03-31T02:24:30.230Z,80.14
2018-03-31T02:27:52.507Z,79.82
2018-03-31T02:31:14.789Z,79.58
2018-03-31T02:34:37.839Z,80.46
2018-03-31T02:38:00.105Z,80.81
2018-03-31T02:41:22.398Z,80.88
2018-03-31T02:44:45.443Z,80.98
2018-03-31T02:48:07.822Z,80.59
2018-03-31T02:51:30.121Z,81.66
2018-03-31T02:54:52.455Z,80.76
2018-03-31T02:58:14.853Z,80.83
2018-03-31T03:01:37.141Z,81.31
2018-03-31T03:04:59.467Z,79.89
2018-03-31T03:08:21.761Z,79.81
2018-03-31T03:11:44.822Z,80.71
2018-03-31T03:15:07.878Z,81.09
2018-03-31T03:18:30.210Z,80.18
2018-03-31T03:21:52.460Z,80.53
2018-03-31T03:25:14.745Z,80.05
2018-03-31T03:28:36.993Z,80.74
2018-03-31T03:31:59.277Z,81.05
2018-03-31T03:35:21.679Z,78.75
2018-03-31T03:38:43.947Z,80.13
2018-03-31T03:42:06.249Z,80.16
2018-03-31T03:45:29.300Z,80.35
2018-03-31T03:48:51.619Z,80.08
2018-03-31T03:52:13.904Z,81.53
2018-03-31T03:55:36.227Z,82.15
2018-03-31T03:58:58.499Z,81.81
2018-03-31T04:02:20.850Z,80.78
2018-03-31T04:05:43.892Z,82.33
2018-03-31T04:09:06.178Z,80.85
2018-03-31T04:12:28.497Z,81.33
2018-03-31T04:15:50.784Z,81.00
2018-03-31T04:19:13.117Z,81.42
2018-03-31T04:22:35.377Z,81.34
2018-03-31T04:25:57.647Z,81.40
2018-03-31T04:29:19.913Z,80.82
2018-03-31T04:32:42.175Z,80.97
2018-03-31T04:36:04.467Z,80.50
2018-03-31T04:39:27.514Z,80.75
2018-03-31T04:42:49.785Z,80.77
2018-03-31T04:46:12.051Z,80.29
2018-03-31T04:49:34.378Z,80.86
2018-03-31T04:52:56.797Z,81.16
2018-03-31T04:56:19.076Z,79.98
2018-03-31T04:59:42.132Z,80.50
2018-03-31T05:03:04.395Z,79.56
2018-03-31T05:06:26.679Z,79.10
2018-03-31T05:09:49.723Z,80.05
2018-03-31T05:13:12.121Z,77.53
2018-03-31T05:16:34.427Z,78.08
2018-03-31T05:19:57.478Z,78.37
2018-03-31T05:23:19.813Z,78.10
2018-03-31T05:26:42.141Z,77.46
2018-03-31T05:30:04.471Z,78.56
2018-03-31T05:33:26.779Z,78.38
2018-03-31T05:36:49.810Z,79.31
2018-03-31T05:40:12.084Z,78.73
2018-03-31T05:43:34.367Z,78.96
2018-03-31T05:46:56.822Z,78.76
2018-03-31T05:50:19.110Z,79.56
2018-03-31T05:53:41.375Z,79.11
2018-03-31T05:57:03.714Z,78.99
2018-03-31T06:00:25.980Z,78.98
2018-03-31T06:03:48.301Z,79.59
2018-03-31T06:07:10.620Z,79.01
2018-03-31T06:10:33.728Z,78.34
2018-03-31T06:13:56.053Z,78.90
2018-03-31T06:17:18.332Z,78.79
2018-03-31T06:20:40.668Z,78.65
2018-03-31T06:24:02.960Z,80.44
2018-03-31T06:27:25.999Z,80.38
2018-03-31T06:30:48.275Z,78.59
2018-03-31T06:34:10.602Z,78.72
2018-03-31T06:37:32.863Z,79.33
2018-03-31T06:40:55.134Z,78.72
2018-03-31T06:44:17.415Z,77.83
2018-03-31T06:47:39.740Z,79.28
2018-03-31T06:51:02.021Z,78.84
2018-03-31T06:54:25.074Z,78.91
2018-03-31T06:57:47.344Z,78.74
2018-03-31T07:01:09.603Z,79.02
2018-03-31T07:04:31.869Z,77.93
2018-03-31T07:07:54.154Z,77.38
2018-03-31T07:11:17.208Z,76.61
2018-03-31T07:14:39.490Z,76.71
2018-03-31T07:18:02.544Z,76.13
2018-03-31T07:21:24.815Z,75.77
2018-03-31T07:24:47.073Z,76.41
2018-03-31T07:28:09.470Z,76.05
2018-03-31T07:31:31.758Z,75.41
2018-03-31T07:34:54.118Z,76.03
2018-03-31T07:38:17.158Z,75.77
2018-03-31T07:41:39.516Z,75.02
2018-03-31T07:45:02.578Z,74.74
2018-03-31T07:48:25.635Z,75.54
2018-03-31T07:51:47.977Z,74.74
2018-03-31T07:55:11.024Z,75.40
2018-03-31T07:58:33.294Z,75.22
2018-03-31T08:01:55.565Z,74.17
2018-03-31T08:05:17.851Z,73.08
2018-03-31T08:08:40.947Z,73.54
2018-03-31T08:12:03.237Z,74.57
2018-03-31T08:15:25.553Z,74.69
2018-03-31T08:18:47.847Z,75.04
2018-03-31T08:22:10.113Z,74.88
2018-03-31T08:25:32.377Z,74.54
2018-03-31T08:28:54.639Z,74.48
2018-03-31T08:32:16.923Z,74.11
2018-03-31T08:35:39.979Z,74.75
2018-03-31T08:39:02.317Z,74.85
2018-03-31T08:42:24.578Z,74.52
2018-03-31T08:45:46.920Z,74.37
2018-03-31T08:49:09.184Z,74.15
2018-03-31T08:52:31.461Z,73.82
2018-03-31T08:55:54.513Z,73.32
2018-03-31T08:59:16.787Z,72.83
2018-03-31T09:02:39.053Z,74.37
2018-03-31T09:06:01.334Z,72.61
2018-03-31T09:09:24.375Z,73.13
2018-03-31T09:12:46.742Z,74.46
2018-03-31T09:16:10.050Z,73.87
2018-03-31T09:19:32.366Z,73.70
2018-03-31T09:22:55.436Z,73.28
2018-03-31T09:26:18.495Z,73.70
2018-03-31T09:29:41.538Z,73.36
2018-03-31T09:33:03.803Z,72.39
2018-03-31T09:36:26.092Z,71.82
2018-03-31T09:39:48.429Z,72.96
2018-03-31T09:43:10.762Z,72.20
2018-03-31T09:46:33.825Z,71.14
2018-03-31T09:49:57.004Z,71.27
2018-03-31T09:53:20.852Z,71.87
2018-03-31T09:56:43.945Z,70.53
2018-03-31T10:00:06.251Z,72.17
2018-03-31T10:03:29.299Z,71.65
2018-03-31T10:06:51.562Z,71.10
2018-03-31T10:10:13.843Z,71.31
2018-03-31T10:13:36.094Z,71.23
2018-03-31T10:16:58.445Z,70.14
2018-03-31T10:20:20.903Z,70.84
2018-03-31T10:23:43.184Z,68.03
2018-03-31T10:27:05.579Z,69.38
2018-03-31T10:30:27.893Z,68.00
2018-03-31T10:33:50.960Z,68.08
2018-03-31T10:37:13.280Z,68.22
2018-03-31T10:40:35.612Z,66.14
2018-03-31T10:43:57.895Z,67.67
2018-03-31T10:47:20.934Z,68.19
2018-03-31T10:50:43.336Z,67.49
2018-03-31T10:54:05.614Z,66.53
2018-03-31T10:57:27.917Z,67.94
2018-03-31T11:00:50.965Z,67.11
2018-03-31T11:04:13.419Z,67.50
2018-03-31T11:07:35.715Z,67.40
2018-03-31T11:10:58.051Z,65.55
2018-03-31T11:14:21.166Z,68.27
2018-03-31T11:17:43.477Z,68.24
2018-03-31T11:21:06.619Z,68.21
2018-03-31T11:24:29.652Z,68.34
2018-03-31T11:27:51.938Z,68.16
2018-03-31T11:31:14.987Z,69.06
2018-03-31T11:34:37.277Z,67.86
2018-03-31T11:38:00.322Z,67.98
2018-03-31T11:41:23.713Z,66.84
2018-03-31T11:44:48.590Z,68.43
2018-03-31T11:48:10.917Z,67.73
2018-03-31T11:51:33.976Z,66.27
2018-03-31T11:54:57.031Z,64.96
2018-03-31T11:58:19.309Z,65.67
2018-03-31T12:01:42.434Z,66.41
2018-03-31T12:05:04.711Z,65.75
2018-03-31T12:08:27.780Z,64.93
2018-03-31T12:11:50.831Z,65.23
2018-03-31T12:15:13.106Z,65.01
2018-03-31T12:18:35.371Z,65.58
2018-03-31T12:21:57.671Z,64.08
2018-03-31T12:25:19.978Z,65.14
2018-03-31T12:28:42.309Z,66.28
2018-03-31T12:32:04.587Z,64.33
2018-03-31T12:35:27.636Z,65.12
2018-03-31T12:38:50.041Z,66.85
2018-03-31T12:42:12.327Z,65.34
2018-03-31T12:45:35.059Z,67.30
2018-03-31T12:48:57.360Z,67.32
2018-03-31T12:52:19.639Z,66.13
2018-03-31T12:55:41.963Z,67.54
2018-03-31T12:59:04.362Z,68.88
2018-03-31T13:02:26.725Z,70.46
2018-03-31T13:05:49.098Z,69.22
2018-03-31T13:09:11.397Z,69.30
2018-03-31T13:12:33.783Z,67.41
2018-03-31T13:15:56.908Z,66.78
2018-03-31T13:19:19.950Z,67.97
2018-03-31T13:22:42.293Z,68.67
2018-03-31T13:26:05.348Z,67.38
2018-03-31T13:29:27.817Z,68.52
2018-03-31T13:32:50.100Z,68.94
2018-03-31T13:36:12.371Z,69.27
2018-03-31T13:39:34.723Z,69.47
2018-03-31T13:42:57.758Z,69.18
2018-03-31T13:46:20.054Z,70.21
2018-03-31T13:49:42.374Z,70.07
2018-03-31T13:53:04.769Z,69.95
2018-03-31T13:56:27.059Z,70.36
2018-03-31T13:59:49.513Z,70.82
2018-03-31T14:03:12.063Z,69.73
2018-03-31T14:06:34.620Z,70.91
2018-03-31T14:09:57.066Z,71.77
2018-03-31T14:13:20.097Z,70.14
2018-03-31T14:16:42.414Z,72.24
2018-03-31T14:20:05.487Z,73.07
2018-03-31T14:23:28.535Z,71.93
2018-03-31T14:26:51.370Z,72.78
2018-03-31T14:30:13.899Z,73.09
2018-03-31T14:33:36.299Z,72.84
2018-03-31T14:36:59.469Z,73.25
2018-03-31T14:40:21.860Z,72.52
2018-03-31T14:43:44.925Z,72.99
2018-03-31T14:47:07.316Z,72.66
2018-03-31T14:50:30.385Z,74.27
2018-03-31T14:53:52.781Z,74.66
2018-03-31T14:57:15.127Z,72.94
2018-03-31T15:00:37.687Z,74.23
2018-03-31T15:03:59.981Z,74.36
2018-03-31T15:07:22.402Z,75.69
2018-03-31T15:10:44.714Z,77.24
2018-03-31T15:14:07.846Z,78.01
2018-03-31T15:17:31.587Z,77.59
2018-03-31T15:20:53.927Z,76.88
2018-03-31T15:24:16.951Z,77.49
2018-03-31T15:27:39.244Z,76.89
2018-03-31T15:31:02.319Z,77.06
2018-03-31T15:34:25.363Z,77.48
2018-03-31T15:37:47.734Z,76.13
2018-03-31T15:41:10.766Z,75.30
2018-03-31T15:44:33.233Z,73.07
2018-03-31T15:47:55.535Z,74.85
2018-03-31T15:51:18.601Z,72.59
2018-03-31T15:54:41.048Z,72.62
2018-03-31T15:58:03.458Z,72.77
2018-03-31T16:01:25.750Z,73.01
2018-03-31T16:04:48.097Z,71.80
2018-03-31T16:08:11.142Z,71.92
2018-03-31T16:11:33.414Z,69.94
2018-03-31T16:14:55.686Z,71.12
2018-03-31T16:18:18.009Z,72.17
2018-03-31T16:21:40.323Z,71.47
2018-03-31T16:25:02.641Z,72.14
2018-03-31T16:28:25.725Z,72.09
2018-03-31T16:31:48.024Z,71.80
2018-03-31T16:35:10.317Z,73.11
2018-03-31T16:38:33.354Z,70.92
2018-03-31T16:41:55.648Z,70.88
2018-03-31T16:45:18.694Z,71.68
2018-03-31T16:48:41.084Z,72.00
2018-03-31T16:52:04.300Z,72.28
2018-03-31T16:55:26.588Z,72.12
2018-03-31T16:58:48.859Z,72.38
2018-03-31T17:02:11.318Z,71.23
2018-03-31T17:05:33.620Z,68.62
2018-03-31T17:08:56.801Z,68.28
2018-03-31T17:12:19.320Z,68.80
2018-03-31T17:15:42.399Z,70.19
2018-03-31T17:19:04.990Z,71.70
2018-03-31T17:22:27.485Z,69.76
2018-03-31T17:25:50.212Z,70.10
2018-03-31T17:29:13.251Z,71.67
2018-03-31T17:32:35.527Z,68.75
2018-03-31T17:35:57.872Z,70.33
2018-03-31T17:39:20.926Z,71.14
2018-03-31T17:42:43.272Z,72.31
2018-03-31T17:46:05.598Z,71.66
2018-03-31T17:49:27.882Z,72.13
2018-03-31T17:52:50.966Z,73.50
2018-03-31T17:56:14.030Z,74.21
2018-03-31T17:59:38.912Z,74.62
2018-03-31T18:03:01.974Z,74.11
2018-03-31T18:06:25.084Z,75.11
2018-03-31T18:09:47.377Z,74.67
2018-03-31T18:13:10.448Z,75.04
2018-03-31T18:16:33.486Z,75.45
2018-03-31T18:19:55.843Z,75.66
2018-03-31T18:23:18.977Z,75.54
2018-03-31T18:26:42.019Z,75.86
2018-03-31T18:30:04.330Z,76.72
2018-03-31T18:33:26.640Z,76.32
2018-03-31T18:36:48.973Z,75.81
2018-03-31T18:40:11.242Z,75.86
2018-03-31T18:43:33.514Z,76.78
2018-03-31T18:46:55.853Z,76.77
2018-03-31T18:50:18.182Z,76.14
2018-03-31T18:53:40.462Z,77.21
2018-03-31T18:57:03.506Z,77.36
2018-03-31T19:00:25.793Z,76.74
2018-03-31T19:03:48.062Z,75.23
2018-03-31T19:07:10.400Z,76.32
2018-03-31T19:10:33.487Z,76.27
2018-03-31T19:13:55.779Z,77.41
2018-03-31T19:17:18.064Z,77.49
2018-03-31T19:20:40.325Z,77.34
2018-03-31T19:24:02.678Z,75.82
2018-03-31T19:27:25.789Z,76.46
2018-03-31T19:30:50.923Z,76.38
2018-03-31T19:34:14.046Z,76.34
2018-03-31T19:37:36.314Z,76.85
2018-03-31T19:40:58.594Z,76.51
2018-03-31T19:44:21.663Z,76.69
2018-03-31T19:47:44.771Z,77.37
2018-03-31T19:51:07.077Z,76.87
2018-03-31T19:54:30.109Z,76.48
2018-03-31T19:57:52.726Z,76.70
2018-03-31T20:01:15.021Z,76.89
2018-03-31T20:04:38.085Z,76.67
2018-03-31T20:08:00.409Z,76.41
2018-03-31T20:11:22.756Z,76.42
2018-03-31T20:14:45.639Z,75.99
2018-03-31T20:18:08.676Z,75.62
2018-03-31T20:21:31.018Z,75.75
2018-03-31T20:24:53.347Z,75.97
2018-03-31T20:28:16.402Z,76.81
2018-03-31T20:31:38.718Z,76.81
2018-03-31T20:35:01.760Z,77.10
2018-03-31T20:38:24.131Z,76.69
2018-03-31T20:41:46.461Z,77.35
2018-03-31T20:45:08.760Z,77.00
2018-03-31T20:48:31.046Z,77.44
2018-03-31T20:51:54.102Z,77.42
2018-03-31T20:55:16.439Z,77.75
2018-03-31T20:58:38.702Z,77.11
2018-03-31T21:02:01.047Z,76.63
2018-03-31T21:05:23.328Z,77.26
2018-03-31T21:08:46.383Z,77.45
2018-03-31T21:12:08.766Z,77.81
2018-03-31T21:15:31.177Z,77.31
2018-03-31T21:18:53.506Z,78.09
2018-03-31T21:22:15.827Z,78.31
2018-03-31T21:25:39.173Z,78.91
2018-03-31T21:29:01.551Z,78.49
2018-03-31T21:32:23.845Z,79.09
2018-03-31T21:35:46.215Z,78.95
2018-03-31T21:39:08.462Z,79.21
2018-03-31T21:42:31.525Z,79.57
2018-03-31T21:45:54.571Z,78.94
2018-03-31T21:49:16.860Z,79.52
2018-03-31T21:52:39.913Z,79.48
2018-03-31T21:56:02.379Z,75.69
2018-03-31T21:59:24.661Z,73.91
2018-03-31T22:02:46.923Z,73.85
2018-03-31T22:06:09.206Z,75.07
2018-03-31T22:09:31.534Z,75.18
2018-03-31T22:16:47.694Z,75.18
2018-03-31T22:20:10.049Z,75.60
2018-03-31T22:23:33.102Z,75.24
2018-03-31T22:26:55.386Z,76.87
2018-03-31T22:30:18.436Z,80.49
2018-03-31T22:33:40.857Z,77.50
2018-03-31T22:37:03.204Z,76.23
2018-03-31T22:40:26.259Z,75.06
2018-03-31T22:43:48.518Z,76.53
2018-03-31T22:47:10.854Z,76.29
2018-03-31T22:50:33.118Z,74.42
2018-03-31T22:53:55.403Z,76.15
2018-03-31T22:57:18.453Z,75.88
2018-03-31T23:00:40.714Z,77.01
2018-03-31T23:04:03.000Z,76.11
2018-03-31T23:07:26.056Z,77.25
2018-03-31T23:10:48.393Z,76.69
2018-03-31T23:14:11.469Z,75.63
2018-03-31T23:17:33.786Z,75.95
2018-03-31T23:20:56.042Z,75.58
2018-03-31T23:24:18.327Z,75.10
2018-03-31T23:27:40.654Z,74.80
2018-03-31T23:31:02.945Z,75.24
2018-03-31T23:34:26.020Z,75.10
2018-03-31T23:37:49.082Z,74.73
2018-03-31T23:41:12.134Z,73.45
2018-03-31T23:44:34.399Z,73.02
2018-03-31T23:47:56.666Z,73.10
2018-03-31T23:51:18.930Z,73.73
2018-03-31T23:54:41.190Z,73.81
2018-03-31T23:58:03.468Z,73.62
